Time;durP1;ratioP1;P1;durP2;ratioP2;P2;SDS_P1;SDS_P2;PMS_P1;PMS_P2;Temp;Humidity;BMP_temperature;BMP_pressure;BME280_temperature;BME280_humidity;BME280_pressure;Samples;Min_cycle;Max_cycle;Signal;HPM_P1;HPM_P2
2021/03/10 00:01:13;;;;;;;;;;;;;;;-0.07;66.89;99840.31;5135991;27;19972;-73
2021/03/10 00:03:41;;;;;;;;;;;;;;;-0.10;67.18;99843.53;5135968;27;19931;-73
2021/03/10 00:06:09;;;;;;;;;;;;;;;-0.10;67.65;99842.72;5135800;27;19975;-73
2021/03/10 00:08:37;;;;;;;;;;;;;;;-0.08;67.84;99847.00;5135828;27;20422;-72
2021/03/10 00:11:05;;;;;;;;;;;;;;;-0.02;67.91;99842.25;5135593;27;20311;-73
2021/03/10 00:13:33;;;;;;;;;;;;;;;-0.03;68.00;99847.19;5135751;27;19928;-73
2021/03/10 00:16:01;;;;;;;;;;;;;;;-0.09;68.18;99852.81;5134979;27;20391;-73
2021/03/10 00:18:30;;;;;;;;;;;;;;;-0.03;68.30;99853.09;5135617;27;19930;-73
2021/03/10 00:20:57;;;;;;;;;;;;;;;-0.07;68.09;99853.72;5135639;27;19924;-73
2021/03/10 00:23:25;;;;;;;;;;;;;;;0.02;67.80;99847.41;5135520;27;19951;-73
2021/03/10 00:25:53;;;;;;;;;;;;;;;-0.05;67.88;99852.13;5135553;27;19927;-73
2021/03/10 00:28:20;;;;;;;;;;;;;;;-0.16;67.71;99845.81;5135774;27;19963;-73
2021/03/10 00:30:48;;;;;;;;;;;;;;;-0.23;67.92;99847.97;5135468;27;20389;-73
2021/03/10 00:33:16;;;;;;;;;;;;;;;-0.21;67.71;99847.25;5135355;27;19992;-73
2021/03/10 00:35:44;;;;;;;;;;;;;;;-0.18;67.85;99841.50;5135678;27;19980;-73
2021/03/10 00:38:12;;;;;;;;;;;;;;;-0.24;67.85;99842.09;5135295;27;19927;-72
2021/03/10 00:40:40;;;;;;;;;;;;;;;-0.35;67.73;99843.28;5135171;27;20385;-72
2021/03/10 00:43:07;;;;;;;;;;;;;;;-0.34;67.67;99842.50;5135283;27;20476;-73
2021/03/10 00:45:35;;;;;;;;;;;;;;;-0.33;67.80;99839.19;5135171;27;19923;-72
2021/03/10 00:48:03;;;;;;;;;;;;;;;-0.32;68.17;99838.41;5135220;27;20094;-72
2021/03/10 00:50:34;;;;;;;;;;;;;;;-0.26;68.28;99833.66;5135122;27;19932;-73
2021/03/10 00:53:02;;;;;;;;;;;;;;;-0.11;68.00;99833.47;5135167;27;19945;-73
2021/03/10 00:55:31;;;;;;;;;;;;;;;0.02;67.93;99832.34;5134961;27;19924;-73
2021/03/10 00:57:58;;;;;;;;;;;;;;;0.05;67.60;99825.78;5135092;27;20389;-73
2021/03/10 01:00:26;;;;;;;;;;;;;;;0.08;67.73;99823.44;5135267;27;19924;-73
2021/03/10 01:02:53;;;;;;;;;;;;;;;0.08;67.61;99815.91;5134920;27;19950;-73
2021/03/10 01:05:22;;;;;;;;;;;;;;;0.05;67.46;99825.78;5135012;27;19924;-73
2021/03/10 01:07:50;;;;;;;;;;;;;;;0.01;67.62;99823.97;5134934;28;20335;-73
2021/03/10 01:10:19;;;;;;;;;;;;;;;0.03;67.37;99826.53;5134945;28;19969;-73
2021/03/10 01:12:46;;;;;;;;;;;;;;;0.02;67.29;99824.81;5134812;28;20262;-73
2021/03/10 01:15:16;;;;;;;;;;;;;;;-0.08;67.17;99819.41;5134894;28;19923;-73
2021/03/10 01:17:44;;;;;;;;;;;;;;;-0.11;67.58;99816.78;5134828;28;20396;-73
2021/03/10 01:20:14;;;;;;;;;;;;;;;-0.08;67.33;99816.91;5134755;28;19923;-73
2021/03/10 01:22:41;;;;;;;;;;;;;;;-0.20;67.10;99813.88;5134781;28;20327;-73
2021/03/10 01:25:10;;;;;;;;;;;;;;;-0.29;67.30;99815.94;5134683;28;19923;-72
2021/03/10 01:27:40;;;;;;;;;;;;;;;-0.43;67.33;99814.47;5137884;27;19973;-72
2021/03/10 01:30:09;;;;;;;;;;;;;;;-0.56;67.74;99817.25;5138882;27;19947;-72
2021/03/10 01:32:37;;;;;;;;;;;;;;;-0.65;68.07;99809.31;5138902;27;19924;-72
2021/03/10 01:35:06;;;;;;;;;;;;;;;-0.70;68.07;99811.59;5138820;27;19965;-72
2021/03/10 01:37:33;;;;;;;;;;;;;;;-0.88;68.20;99812.41;5138821;27;19927;-72
2021/03/10 01:40:14;;;;;;;;;;;;;;;-1.08;68.14;99813.16;5139125;27;19962;-72
2021/03/10 01:42:43;;;;;;;;;;;;;;;-1.20;68.81;99817.56;5138734;27;19975;-72
2021/03/10 01:45:11;;;;;;;;;;;;;;;-1.24;68.97;99820.69;5139011;27;19924;-72
2021/03/10 01:47:40;;;;;;;;;;;;;;;-1.30;69.09;99815.41;5138576;27;19962;-72
2021/03/10 01:50:08;;;;;;;;;;;;;;;-1.27;69.43;99808.06;5120326;27;19923;-72
2021/03/10 01:52:36;;;;;;;;;;;;;;;-1.32;69.81;99811.97;5138461;27;19930;-72
2021/03/10 01:55:04;;;;;;;;;;;;;;;-1.37;69.75;99810.09;5138325;27;19927;-72
2021/03/10 01:57:33;;;;;;;;;;;;;;;-1.40;70.32;99809.97;5138362;27;19923;-72
2021/03/10 02:00:02;;;;;;;;;;;;;;;-1.37;70.02;99805.09;5138696;27;19924;-72
2021/03/10 02:02:41;;;;;;;;;;;;;;;-1.48;70.01;99803.72;5138308;27;19927;-72
2021/03/10 02:05:10;;;;;;;;;;;;;;;-1.49;70.13;99804.50;5138327;27;20254;-72
2021/03/10 02:07:45;;;;;;;;;;;;;;;-1.40;70.22;99809.09;5138168;27;19923;-72
2021/03/10 02:10:17;;;;;;;;;;;;;;;-1.51;69.95;99806.06;5138586;27;20331;-72
2021/03/10 02:12:48;;;;;;;;;;;;;;;-1.59;70.44;99796.50;5138177;27;19947;-72
2021/03/10 02:15:22;;;;;;;;;;;;;;;-1.53;70.65;99802.63;5138076;27;19950;-72
2021/03/10 02:17:52;;;;;;;;;;;;;;;-1.50;70.28;99807.81;5138145;27;20373;-72
2021/03/10 02:20:28;;;;;;;;;;;;;;;-1.55;70.19;99804.22;5119718;27;19923;-72
2021/03/10 02:23:06;;;;;;;;;;;;;;;-1.61;70.34;99810.56;5138061;27;19924;-72
2021/03/10 02:25:39;;;;;;;;;;;;;;;-1.77;70.18;99811.44;5137819;27;19928;-72
2021/03/10 02:28:08;;;;;;;;;;;;;;;-1.92;70.26;99805.66;5137923;27;19930;-72
2021/03/10 02:30:37;;;;;;;;;;;;;;;-1.95;70.89;99805.53;5137640;27;20003;-72
2021/03/10 02:33:08;;;;;;;;;;;;;;;-1.96;70.86;99798.81;5138044;27;19992;-72
2021/03/10 02:35:38;;;;;;;;;;;;;;;-1.97;70.72;99809.59;5137741;27;19930;-72
2021/03/10 02:38:07;;;;;;;;;;;;;;;-2.07;71.09;99802.41;5137077;27;19931;-72
2021/03/10 02:40:36;;;;;;;;;;;;;;;-2.12;70.98;99801.31;5137571;27;19972;-72
2021/03/10 02:43:04;;;;;;;;;;;;;;;-2.12;71.51;99806.31;5137524;27;19927;-72
2021/03/10 02:45:33;;;;;;;;;;;;;;;-2.11;71.41;99808.03;5137502;27;19930;-72
2021/03/10 02:48:01;;;;;;;;;;;;;;;-2.04;71.43;99805.91;5137409;27;19930;-72
2021/03/10 02:50:30;;;;;;;;;;;;;;;-2.03;71.39;99811.78;5137410;27;19959;-72
2021/03/10 02:52:58;;;;;;;;;;;;;;;-2.16;71.18;99807.78;5137058;27;19945;-73
2021/03/10 02:55:25;;;;;;;;;;;;;;;-2.21;71.38;99805.88;5137360;27;20337;-72
2021/03/10 02:57:54;;;;;;;;;;;;;;;-2.26;71.34;99812.25;5137153;27;19930;-72
2021/03/10 03:00:23;;;;;;;;;;;;;;;-2.12;71.59;99809.69;5137164;27;20018;-72
2021/03/10 03:02:51;;;;;;;;;;;;;;;-2.22;72.03;99805.00;5119149;27;19923;-72
2021/03/10 03:05:19;;;;;;;;;;;;;;;-2.40;71.45;99808.19;5137092;27;19931;-72
2021/03/10 03:07:48;;;;;;;;;;;;;;;-2.50;71.81;99806.00;5137076;27;19923;-72
2021/03/10 03:10:17;;;;;;;;;;;;;;;-2.52;71.89;99807.56;5137285;27;19923;-72
2021/03/10 03:12:44;;;;;;;;;;;;;;;-2.50;72.07;99799.38;5136996;27;19927;-72
2021/03/10 03:15:14;;;;;;;;;;;;;;;-2.45;71.86;99804.59;5136871;27;20029;-72
2021/03/10 03:17:43;;;;;;;;;;;;;;;-2.42;71.90;99805.59;5136982;27;19947;-72
2021/03/10 03:20:13;;;;;;;;;;;;;;;-2.38;71.84;99806.63;5137086;27;19974;-72
2021/03/10 03:22:42;;;;;;;;;;;;;;;-2.31;72.00;99803.66;5136661;27;19923;-72
2021/03/10 03:25:12;;;;;;;;;;;;;;;-2.35;72.28;99806.78;5136789;27;20338;-72
2021/03/10 03:27:43;;;;;;;;;;;;;;;-2.35;72.07;99806.78;5118455;27;19927;-72
2021/03/10 03:30:11;;;;;;;;;;;;;;;-2.36;71.97;99810.06;5118585;27;19970;-72
2021/03/10 03:32:39;;;;;;;;;;;;;;;-2.40;72.32;99813.19;5136617;27;19923;-72
2021/03/10 03:35:11;;;;;;;;;;;;;;;-2.39;72.36;99807.41;5136453;27;19927;-72
2021/03/10 03:37:45;;;;;;;;;;;;;;;-2.41;71.90;99811.47;5136510;27;20017;-72
2021/03/10 03:40:13;;;;;;;;;;;;;;;-2.46;71.85;99817.84;5136682;27;20011;-72
2021/03/10 03:42:41;;;;;;;;;;;;;;;-2.46;72.49;99812.84;5136456;27;19959;-72
2021/03/10 03:45:09;;;;;;;;;;;;;;;-2.46;72.42;99805.34;5136356;27;19927;-72
2021/03/10 03:47:38;;;;;;;;;;;;;;;-2.52;71.96;99817.53;5136622;27;20026;-72
2021/03/10 03:50:06;;;;;;;;;;;;;;;-2.54;72.01;99819.09;5136225;27;20285;-72
2021/03/10 03:52:34;;;;;;;;;;;;;;;-2.53;71.96;99821.69;5136359;27;20423;-72
2021/03/10 03:55:04;;;;;;;;;;;;;;;-2.41;72.40;99818.94;5135982;27;20372;-72
2021/03/10 03:57:31;;;;;;;;;;;;;;;-2.40;71.99;99818.19;5136103;27;19929;-72
2021/03/10 04:00:00;;;;;;;;;;;;;;;-2.55;72.31;99824.88;5136207;27;20022;-72
2021/03/10 04:02:27;;;;;;;;;;;;;;;-2.59;72.01;99825.50;5135983;27;20285;-72
2021/03/10 04:04:55;;;;;;;;;;;;;;;-2.69;72.47;99818.28;5117963;27;19930;-72
2021/03/10 04:07:23;;;;;;;;;;;;;;;-2.77;72.07;99826.22;5117879;27;19930;-72
2021/03/10 04:09:50;;;;;;;;;;;;;;;-2.79;72.55;99820.31;5135800;27;19924;-72
2021/03/10 04:12:19;;;;;;;;;;;;;;;-2.82;72.65;99826.75;5136086;27;19929;-72
2021/03/10 04:14:46;;;;;;;;;;;;;;;-2.88;72.21;99831.44;5135733;27;19924;-72
2021/03/10 04:17:14;;;;;;;;;;;;;;;-2.93;72.22;99831.16;5135771;27;19974;-72
2021/03/10 04:19:42;;;;;;;;;;;;;;;-2.85;72.27;99826.59;5117386;27;19923;-72
2021/03/10 04:22:11;;;;;;;;;;;;;;;-2.90;72.45;99828.84;5117567;27;20014;-72
2021/03/10 04:24:38;;;;;;;;;;;;;;;-2.97;72.21;99836.75;5135511;27;19923;-73
2021/03/10 04:27:06;;;;;;;;;;;;;;;-2.97;72.21;99836.75;5135522;27;19930;-73
2021/03/10 04:29:36;;;;;;;;;;;;;;;-2.97;72.30;99836.75;5135560;27;20369;-72
2021/03/10 04:32:03;;;;;;;;;;;;;;;-2.90;72.57;99833.81;5135361;27;20014;-72
2021/03/10 04:34:31;;;;;;;;;;;;;;;-2.94;71.69;99831.94;5135404;27;20026;-72
2021/03/10 04:36:59;;;;;;;;;;;;;;;-2.98;72.65;99830.06;5135250;27;20281;-72
2021/03/10 04:39:26;;;;;;;;;;;;;;;-2.98;72.07;99835.06;5135601;27;19947;-72
2021/03/10 04:41:54;;;;;;;;;;;;;;;-3.12;71.85;99830.91;5135227;27;19976;-73
2021/03/10 04:44:23;;;;;;;;;;;;;;;-3.06;72.64;99836.28;5135270;27;19971;-72
2021/03/10 04:46:51;;;;;;;;;;;;;;;-3.05;72.43;99832.16;5135461;27;19991;-72
2021/03/10 04:49:19;;;;;;;;;;;;;;;-3.14;72.25;99832.47;5135164;27;19969;-72
2021/03/10 04:51:47;;;;;;;;;;;;;;;-3.14;72.37;99832.47;5135044;27;19923;-72
2021/03/10 04:54:14;;;;;;;;;;;;;;;-3.11;72.74;99830.16;5134904;27;20270;-72
2021/03/10 04:56:42;;;;;;;;;;;;;;;-3.17;72.28;99832.34;5135069;27;20021;-72
2021/03/10 04:59:09;;;;;;;;;;;;;;;-3.15;72.49;99830.78;5135080;27;20357;-72
2021/03/10 05:01:37;;;;;;;;;;;;;;;-3.16;72.45;99824.06;5134631;27;19930;-72
2021/03/10 05:04:07;;;;;;;;;;;;;;;-3.19;72.20;99826.38;5135030;27;19924;-72
2021/03/10 05:06:36;;;;;;;;;;;;;;;-3.31;72.19;99828.19;5135639;27;20019;-72
2021/03/10 05:09:04;;;;;;;;;;;;;;;-3.27;72.48;99830.09;5116620;28;20023;-72
2021/03/10 05:11:32;;;;;;;;;;;;;;;-3.33;72.44;99834.72;5116684;28;19924;-72
2021/03/10 05:13:59;;;;;;;;;;;;;;;-3.46;72.28;99832.34;5134873;28;20372;-72
2021/03/10 05:16:27;;;;;;;;;;;;;;;-3.55;72.35;99841.81;5135474;28;20238;-72
2021/03/10 05:18:55;;;;;;;;;;;;;;;-3.61;72.85;99827.34;5135099;28;19927;-72
2021/03/10 05:21:23;;;;;;;;;;;;;;;-3.54;73.14;99833.53;5116869;28;19930;-72
2021/03/10 05:23:51;;;;;;;;;;;;;;;-3.46;72.86;99837.31;5116512;28;20273;-72
2021/03/10 05:26:18;;;;;;;;;;;;;;;-3.45;73.29;99834.91;5135060;28;20022;-72
2021/03/10 05:28:46;;;;;;;;;;;;;;;-3.33;73.07;99838.84;5134699;28;20002;-72
2021/03/10 05:31:13;;;;;;;;;;;;;;;-3.29;72.75;99841.63;5134714;28;19930;-72
2021/03/10 05:33:41;;;;;;;;;;;;;;;-3.28;73.18;99848.31;5134608;28;19924;-72
2021/03/10 05:36:09;;;;;;;;;;;;;;;-3.24;73.04;99844.38;5134645;28;19923;-72
2021/03/10 05:38:38;;;;;;;;;;;;;;;-3.23;72.97;99851.94;5134536;28;19931;-72
2021/03/10 05:41:06;;;;;;;;;;;;;;;-3.11;73.24;99856.75;5116239;28;19930;-72
2021/03/10 05:43:33;;;;;;;;;;;;;;;-2.99;73.37;99853.31;5134594;28;20015;-72
2021/03/10 05:46:01;;;;;;;;;;;;;;;-2.87;73.53;99853.97;5134490;28;20300;-72
2021/03/10 05:48:30;;;;;;;;;;;;;;;-2.77;73.33;99845.34;5134585;28;20288;-72
2021/03/10 05:50:59;;;;;;;;;;;;;;;-2.66;73.06;99845.94;5134715;28;19928;-72
2021/03/10 05:53:28;;;;;;;;;;;;;;;-2.56;73.11;99845.63;5134247;28;20026;-72
2021/03/10 05:55:59;;;;;;;;;;;;;;;-2.42;72.82;99844.69;5134362;28;19967;-73
2021/03/10 05:58:27;;;;;;;;;;;;;;;-2.22;73.09;99854.13;5134427;28;19927;-72
2021/03/10 06:00:54;;;;;;;;;;;;;;;-1.98;72.99;99855.38;5134444;28;20018;-72
2021/03/10 06:03:22;;;;;;;;;;;;;;;-1.81;72.78;99849.59;5134403;28;19923;-72
2021/03/10 06:05:58;;;;;;;;;;;;;;;-1.64;72.20;99853.81;5134642;28;19973;-72
2021/03/10 06:08:29;;;;;;;;;;;;;;;-1.46;71.76;99854.69;5134322;28;19924;-72
2021/03/10 06:10:58;;;;;;;;;;;;;;;-1.30;71.53;99855.47;5134411;28;19972;-72
2021/03/10 06:13:26;;;;;;;;;;;;;;;-1.24;70.25;99855.72;5135075;27;19968;-72
2021/03/10 06:15:54;;;;;;;;;;;;;;;-1.10;70.16;99859.75;5138081;27;19924;-72
2021/03/10 06:18:26;;;;;;;;;;;;;;;-0.95;69.79;99866.38;5137871;27;20373;-73
2021/03/10 06:21:05;;;;;;;;;;;;;;;-0.84;69.32;99860.22;5138292;27;19923;-72
2021/03/10 06:23:33;;;;;;;;;;;;;;;-0.83;68.84;99866.09;5138220;27;20031;-72
2021/03/10 06:26:02;;;;;;;;;;;;;;;-0.82;68.38;99862.81;5137888;27;20014;-72
2021/03/10 06:28:39;;;;;;;;;;;;;;;-0.81;68.30;99870.38;5137781;27;19966;-73
2021/03/10 06:31:17;;;;;;;;;;;;;;;-0.73;68.04;99880.75;5138181;27;19923;-72
2021/03/10 06:33:45;;;;;;;;;;;;;;;-0.59;68.02;99877.25;5137777;27;19927;-72
2021/03/10 06:36:23;;;;;;;;;;;;;;;-0.48;67.57;99883.59;5137730;27;19934;-72
2021/03/10 06:38:51;;;;;;;;;;;;;;;-0.37;67.17;99882.47;5138014;27;20422;-72
2021/03/10 06:41:30;;;;;;;;;;;;;;;-0.31;67.17;99892.75;5137542;27;19927;-72
2021/03/10 06:43:59;;;;;;;;;;;;;;;-0.24;67.03;99891.41;5137900;27;20364;-72
2021/03/10 06:46:26;;;;;;;;;;;;;;;-0.19;66.84;99895.81;5137499;27;19927;-72
2021/03/10 06:48:58;;;;;;;;;;;;;;;0.00;66.72;99900.84;5137356;27;19924;-73
2021/03/10 06:51:26;;;;;;;;;;;;;;;0.14;66.81;99900.63;5119234;27;19923;-73
2021/03/10 06:53:54;;;;;;;;;;;;;;;0.17;66.11;99900.75;5137333;27;20022;-73
2021/03/10 06:56:23;;;;;;;;;;;;;;;0.14;65.80;99901.47;5119242;27;19931;-72
2021/03/10 06:59:09;;;;;;;;;;;;;;;0.15;65.72;99902.31;5137347;27;20456;-73
2021/03/10 07:01:38;;;;;;;;;;;;;;;0.09;65.23;99897.91;5137156;27;20412;-74
2021/03/10 07:04:07;;;;;;;;;;;;;;;0.03;65.23;99897.63;5137709;27;19959;-73
2021/03/10 07:06:35;;;;;;;;;;;;;;;0.03;65.02;99904.28;5137035;27;20377;-74
2021/03/10 07:09:05;;;;;;;;;;;;;;;0.03;65.10;99910.16;5137028;27;19923;-73
2021/03/10 07:11:33;;;;;;;;;;;;;;;0.16;65.34;99917.44;5136830;27;19923;-72
2021/03/10 07:14:01;;;;;;;;;;;;;;;0.18;65.14;99917.50;5136923;27;20288;-73
2021/03/10 07:16:32;;;;;;;;;;;;;;;0.12;64.97;99912.25;5137011;27;19923;-72
2021/03/10 07:19:01;;;;;;;;;;;;;;;0.18;65.34;99917.50;5137205;27;19981;-73
2021/03/10 07:21:34;;;;;;;;;;;;;;;0.24;65.09;99913.59;5137149;27;20436;-73
2021/03/10 07:24:02;;;;;;;;;;;;;;;0.26;65.12;99921.22;5136438;27;19923;-73
2021/03/10 07:26:31;;;;;;;;;;;;;;;0.28;64.83;99919.63;5137010;27;19923;-73
2021/03/10 07:29:06;;;;;;;;;;;;;;;0.40;64.61;99925.19;5136667;27;19986;-72
2021/03/10 07:31:33;;;;;;;;;;;;;;;0.56;64.25;99920.03;5136623;27;19923;-73
2021/03/10 07:34:03;;;;;;;;;;;;;;;0.68;64.29;99928.06;5136541;27;19923;-73
2021/03/10 07:36:35;;;;;;;;;;;;;;;0.81;63.66;99925.28;5118517;27;19970;-74
2021/03/10 07:39:04;;;;;;;;;;;;;;;0.73;63.49;99925.75;5136711;27;19923;-73
2021/03/10 07:41:32;;;;;;;;;;;;;;;0.78;63.47;99930.19;5136358;27;19924;-72
2021/03/10 07:44:00;;;;;;;;;;;;;;;0.94;63.03;99927.50;5136374;27;19931;-73
2021/03/10 07:46:29;;;;;;;;;;;;;;;1.11;62.47;99926.53;5136612;27;19976;-73
2021/03/10 07:48:57;;;;;;;;;;;;;;;1.21;62.57;99926.09;5136295;27;20422;-72
2021/03/10 07:51:28;;;;;;;;;;;;;;;1.44;62.61;99918.63;5136219;27;19934;-73
2021/03/10 07:53:56;;;;;;;;;;;;;;;1.62;61.41;99926.88;5136344;27;20014;-73
2021/03/10 07:56:27;;;;;;;;;;;;;;;1.66;61.13;99918.63;5136302;27;19923;-73
2021/03/10 07:59:06;;;;;;;;;;;;;;;1.75;60.32;99919.00;5136158;27;20424;-72
2021/03/10 08:01:34;;;;;;;;;;;;;;;2.02;60.95;99920.00;5136210;27;19953;-73
2021/03/10 08:04:09;;;;;;;;;;;;;;;2.26;60.27;99920.03;5135987;27;19959;-73
2021/03/10 08:06:44;;;;;;;;;;;;;;;2.44;59.53;99919.03;5135905;27;19924;-73
2021/03/10 08:09:12;;;;;;;;;;;;;;;2.47;58.31;99921.66;5135982;27;20006;-73
2021/03/10 08:11:43;;;;;;;;;;;;;;;2.47;57.51;99921.66;5135744;27;19974;-72
2021/03/10 08:14:11;;;;;;;;;;;;;;;2.56;57.29;99916.97;5135881;27;19924;-73
2021/03/10 08:16:46;;;;;;;;;;;;;;;2.56;57.01;99926.16;5135713;27;20397;-72
2021/03/10 08:19:19;;;;;;;;;;;;;;;2.70;57.33;99922.47;5135719;27;19930;-72
2021/03/10 08:21:50;;;;;;;;;;;;;;;2.95;57.21;99926.66;5135479;27;19924;-73
2021/03/10 08:24:18;;;;;;;;;;;;;;;2.95;55.86;99916.59;5135616;27;19951;-72
2021/03/10 08:26:50;;;;;;;;;;;;;;;3.05;56.16;99926.13;5135570;27;20338;-73
2021/03/10 08:29:18;;;;;;;;;;;;;;;3.23;55.72;99931.78;5135786;27;19967;-73
2021/03/10 08:31:48;;;;;;;;;;;;;;;3.46;55.29;99928.31;5135671;27;19927;-73
2021/03/10 08:34:17;;;;;;;;;;;;;;;3.58;54.19;99921.13;5135672;27;20352;-72
2021/03/10 08:36:44;;;;;;;;;;;;;;;3.62;53.72;99920.44;5134656;27;19976;-73
2021/03/10 08:39:14;;;;;;;;;;;;;;;3.80;54.47;99920.97;5135288;27;19924;-73
2021/03/10 08:41:45;;;;;;;;;;;;;;;4.04;54.20;99919.19;5135229;27;19924;-73
2021/03/10 08:44:13;;;;;;;;;;;;;;;4.24;53.61;99914.69;5135333;27;19966;-73
2021/03/10 08:46:42;;;;;;;;;;;;;;;4.30;52.23;99914.84;5135210;27;19928;-74
2021/03/10 08:49:31;;;;;;;;;;;;;;;4.31;52.60;99925.81;5117017;28;20339;-73
2021/03/10 08:52:03;;;;;;;;;;;;;;;4.38;52.09;99927.72;5129333;27;20010;-74
2021/03/10 08:54:33;;;;;;;;;;;;;;;4.58;51.26;99924.06;5113473;28;20370;-74
2021/03/10 08:57:04;;;;;;;;;;;;;;;4.84;50.68;99919.69;5113827;28;21321;-74
2021/03/10 08:59:35;;;;;;;;;;;;;;;5.06;50.17;99920.25;5114847;28;19969;-74
2021/03/10 09:02:03;;;;;;;;;;;;;;;5.16;49.03;99914.59;5114653;28;19924;-73
2021/03/10 09:04:32;;;;;;;;;;;;;;;5.20;48.86;99913.88;5113526;28;19930;-73
2021/03/10 09:07:01;;;;;;;;;;;;;;;5.22;48.10;99913.91;5113413;28;19924;-73
2021/03/10 09:09:34;;;;;;;;;;;;;;;5.23;48.24;99911.41;5114631;28;20324;-73
2021/03/10 09:12:07;;;;;;;;;;;;;;;5.43;47.41;99905.16;5113501;28;20416;-73
2021/03/10 09:14:43;;;;;;;;;;;;;;;5.43;47.47;99905.16;5113259;28;19924;-73
2021/03/10 09:17:17;;;;;;;;;;;;;;;5.50;47.72;99895.16;5112938;28;19931;-73
2021/03/10 09:19:50;;;;;;;;;;;;;;;5.70;47.63;99899.00;5114308;28;19985;-73
2021/03/10 09:22:22;;;;;;;;;;;;;;;5.89;46.17;99896.06;5113062;28;19924;-72
2021/03/10 09:25:18;;;;;;;;;;;;;;;5.69;45.74;99894.75;5113139;28;19935;-73
2021/03/10 09:28:02;;;;;;;;;;;;;;;5.68;45.13;99893.91;5112957;28;20404;-73
2021/03/10 09:30:32;;;;;;;;;;;;;;;5.95;45.57;99888.63;5113364;28;19931;-73
2021/03/10 09:33:01;;;;;;;;;;;;;;;6.09;44.37;99882.16;5114145;28;19959;-73
2021/03/10 09:35:30;;;;;;;;;;;;;;;6.29;43.36;99890.97;5114113;28;19959;-72
2021/03/10 09:38:00;;;;;;;;;;;;;;;6.32;44.01;99883.44;5112888;28;19928;-73
2021/03/10 09:40:37;;;;;;;;;;;;;;;6.28;43.38;99891.81;5114067;28;19924;-73
2021/03/10 09:43:06;;;;;;;;;;;;;;;6.35;42.99;99888.59;5112954;28;19928;-73
2021/03/10 09:45:37;;;;;;;;;;;;;;;6.50;43.13;99888.84;5113870;28;20385;-73
2021/03/10 09:48:08;;;;;;;;;;;;;;;6.61;42.93;99889.91;5115035;28;19947;-73
2021/03/10 09:50:46;;;;;;;;;;;;;;;6.92;42.95;99887.91;5117062;28;19985;-73
2021/03/10 09:53:17;;;;;;;;;;;;;;;7.00;42.58;99886.38;5116747;28;20358;-73
2021/03/10 09:55:52;;;;;;;;;;;;;;;7.17;42.22;99874.81;5116794;28;19924;-73
2021/03/10 09:58:21;;;;;;;;;;;;;;;7.44;40.75;99871.00;5116763;28;19924;-73
2021/03/10 10:00:59;;;;;;;;;;;;;;;7.58;39.12;99878.84;5116716;28;19923;-73
2021/03/10 10:03:28;;;;;;;;;;;;;;;7.57;37.87;99873.72;5116733;28;19930;-73
2021/03/10 10:06:04;;;;;;;;;;;;;;;7.59;36.84;99870.38;5116940;28;20382;-73
2021/03/10 10:08:34;;;;;;;;;;;;;;;7.45;36.05;99882.00;5116480;28;19946;-73
2021/03/10 10:11:04;;;;;;;;;;;;;;;7.24;35.54;99871.53;5118086;28;19939;-73
2021/03/10 10:13:44;;;;;;;;;;;;;;;7.25;36.02;99879.16;5116685;28;20391;-73
2021/03/10 10:16:12;;;;;;;;;;;;;;;7.38;35.75;99880.22;5117558;28;20335;-73
2021/03/10 10:18:47;;;;;;;;;;;;;;;7.40;34.79;99874.34;5116362;28;19924;-74
2021/03/10 10:21:17;;;;;;;;;;;;;;;7.19;35.60;99870.63;5117762;28;19931;-73
2021/03/10 10:23:47;;;;;;;;;;;;;;;7.35;35.36;99855.63;5116437;28;19970;-74
2021/03/10 10:26:20;;;;;;;;;;;;;;;7.46;35.97;99863.44;5117381;28;19931;-74
2021/03/10 10:28:50;;;;;;;;;;;;;;;7.65;35.66;99854.38;5115946;28;19962;-75
2021/03/10 10:31:45;;;;;;;;;;;;;;;7.71;35.11;99855.28;5117242;28;19931;-74
2021/03/10 10:34:14;;;;;;;;;;;;;;;7.79;35.33;99858.81;5117471;28;19953;-74
2021/03/10 10:36:44;;;;;;;;;;;;;;;8.07;35.04;99862.53;5117186;28;19924;-74
2021/03/10 10:39:40;;;;;;;;;;;;;;;7.82;34.15;99858.81;5116001;28;19985;-74
2021/03/10 10:42:12;;;;;;;;;;;;;;;7.77;33.19;99850.31;5116139;28;20027;-74
2021/03/10 10:44:40;;;;;;;;;;;;;;;7.88;32.42;99847.88;5115779;28;19928;-74
2021/03/10 10:47:11;;;;;;;;;;;;;;;8.01;31.45;99850.59;5115887;28;19931;-74
2021/03/10 10:49:57;;;;;;;;;;;;;;;8.32;31.95;99851.00;5115735;28;19930;-73
2021/03/10 10:52:26;;;;;;;;;;;;;;;8.57;31.74;99842.75;5115920;28;20296;-73
2021/03/10 10:54:53;;;;;;;;;;;;;;;8.84;30.85;99848.13;5134733;27;19928;-73
2021/03/10 10:57:24;;;;;;;;;;;;;;;8.58;30.18;99849.56;5119277;27;19923;-73
2021/03/10 10:59:57;;;;;;;;;;;;;;;8.37;30.36;99844.28;5118642;27;19923;-73
2021/03/10 11:02:27;;;;;;;;;;;;;;;8.42;30.16;99835.84;5137230;27;19974;-73
2021/03/10 11:05:06;;;;;;;;;;;;;;;8.57;29.97;99835.13;5118876;27;20139;-73
2021/03/10 11:07:37;;;;;;;;;;;;;;;8.70;30.17;99834.44;5118966;27;20384;-73
2021/03/10 11:10:07;;;;;;;;;;;;;;;8.44;29.66;99840.97;5118792;27;19923;-74
2021/03/10 11:12:42;;;;;;;;;;;;;;;8.51;29.84;99838.50;5137097;27;19955;-74
2021/03/10 11:15:10;;;;;;;;;;;;;;;8.60;29.50;99837.72;5137140;27;20418;-73
2021/03/10 11:17:48;;;;;;;;;;;;;;;8.72;29.59;99831.06;5118531;27;19955;-74
2021/03/10 11:20:17;;;;;;;;;;;;;;;9.22;29.87;99831.47;5118426;27;19930;-74
2021/03/10 11:22:45;;;;;;;;;;;;;;;9.53;29.50;99826.53;5136640;27;19930;-74
2021/03/10 11:25:16;;;;;;;;;;;;;;;9.47;29.04;99832.47;5136827;27;20365;-74
2021/03/10 11:27:45;;;;;;;;;;;;;;;9.32;28.82;99823.03;5118356;27;19945;-73
2021/03/10 11:30:18;;;;;;;;;;;;;;;9.70;29.48;99819.84;5136935;27;20326;-73
2021/03/10 11:32:48;;;;;;;;;;;;;;;9.91;29.23;99814.88;5118310;27;19923;-72
2021/03/10 11:35:22;;;;;;;;;;;;;;;9.41;27.61;99817.13;5118547;27;20034;-73
2021/03/10 11:37:51;;;;;;;;;;;;;;;9.18;27.78;99814.47;5118117;27;20010;-74
2021/03/10 11:40:24;;;;;;;;;;;;;;;9.52;27.89;99807.88;5118748;27;19949;-74
2021/03/10 11:42:53;;;;;;;;;;;;;;;9.69;27.40;99818.16;5136348;27;19923;-72
2021/03/10 11:45:21;;;;;;;;;;;;;;;9.70;27.21;99809.66;5136397;27;19924;-72
2021/03/10 11:47:48;;;;;;;;;;;;;;;9.60;27.62;99802.84;5136239;27;19923;-72
2021/03/10 11:50:17;;;;;;;;;;;;;;;9.66;27.90;99792.66;5117966;27;20380;-72
2021/03/10 11:52:44;;;;;;;;;;;;;;;9.66;27.74;99797.75;5136244;27;19923;-72
2021/03/10 11:55:13;;;;;;;;;;;;;;;9.40;27.59;99785.75;5136099;27;19935;-72
2021/03/10 11:57:41;;;;;;;;;;;;;;;9.38;28.08;99795.03;5136404;27;20377;-73
2021/03/10 12:00:16;;;;;;;;;;;;;;;9.56;28.11;99789.22;5117844;27;19923;-73
2021/03/10 12:02:51;;;;;;;;;;;;;;;9.64;27.78;99786.72;5135998;27;19927;-74
2021/03/10 12:05:30;;;;;;;;;;;;;;;9.84;28.60;99782.53;5117719;27;19923;-73
2021/03/10 12:07:58;;;;;;;;;;;;;;;9.43;27.66;99784.88;5118151;27;20367;-73
2021/03/10 12:10:26;;;;;;;;;;;;;;;9.25;27.46;99778.00;5117295;28;19930;-74
2021/03/10 12:12:54;;;;;;;;;;;;;;;9.19;27.70;99775.41;5135434;27;19927;-74
2021/03/10 12:15:23;;;;;;;;;;;;;;;9.04;27.83;99780.41;5117696;27;20359;-72
2021/03/10 12:17:51;;;;;;;;;;;;;;;9.15;27.52;99778.78;5135623;27;19992;-73
2021/03/10 12:20:19;;;;;;;;;;;;;;;9.37;27.87;99778.06;5135492;27;20270;-72
2021/03/10 12:22:47;;;;;;;;;;;;;;;9.73;27.07;99776.53;5135533;27;20377;-73
2021/03/10 12:25:14;;;;;;;;;;;;;;;10.05;27.30;99762.22;5135784;27;19923;-73
2021/03/10 12:27:42;;;;;;;;;;;;;;;10.67;27.64;99764.88;5135577;27;19923;-73
2021/03/10 12:30:11;;;;;;;;;;;;;;;10.97;26.47;99764.00;5135487;27;19923;-74
2021/03/10 12:32:40;;;;;;;;;;;;;;;10.58;25.97;99765.72;5135435;27;19923;-72
2021/03/10 12:35:09;;;;;;;;;;;;;;;9.88;26.38;99764.72;5135416;27;19968;-72
2021/03/10 12:37:37;;;;;;;;;;;;;;;9.73;26.53;99761.25;5135274;27;19930;-73
2021/03/10 12:40:07;;;;;;;;;;;;;;;10.16;27.28;99759.72;5135396;27;20014;-73
2021/03/10 12:42:36;;;;;;;;;;;;;;;10.28;26.50;99760.59;5116910;27;19946;-72
2021/03/10 12:45:06;;;;;;;;;;;;;;;10.19;25.66;99765.69;5135289;27;19984;-73
2021/03/10 12:47:34;;;;;;;;;;;;;;;10.42;25.42;99764.00;5135204;27;20337;-72
2021/03/10 12:50:03;;;;;;;;;;;;;;;10.69;25.71;99753.81;5135177;27;19927;-72
2021/03/10 12:52:31;;;;;;;;;;;;;;;11.00;25.90;99753.78;5135173;27;19924;-72
2021/03/10 12:54:59;;;;;;;;;;;;;;;10.56;25.59;99754.66;5134990;27;20369;-72
2021/03/10 12:57:28;;;;;;;;;;;;;;;10.01;25.51;99752.84;5117215;27;19923;-72
2021/03/10 12:59:55;;;;;;;;;;;;;;;10.19;25.76;99750.38;5100340;27;19935;-73
2021/03/10 13:02:24;;;;;;;;;;;;;;;10.48;26.58;99751.28;5134818;27;19970;-72
2021/03/10 13:04:52;;;;;;;;;;;;;;;10.70;26.68;99759.78;5135580;27;20018;-73